sensor_id;sensor_type;location;lat;lon;timestamp;P1;durP1;ratioP1;P2;durP2;ratioP2
82787;SDS011;72529;51.786;4.662;2024-03-29T00:02:03;3.14;;;2.35;;
82787;SDS011;72529;51.786;4.662;2024-03-29T00:04:28;3.11;;;2.34;;
82787;SDS011;72529;51.786;4.662;2024-03-29T00:06:54;3.14;;;2.36;;
82787;SDS011;72529;51.786;4.662;2024-03-29T00:09:19;3.18;;;2.35;;
82787;SDS011;72529;51.786;4.662;2024-03-29T00:11:45;3.55;;;2.63;;
82787;SDS011;72529;51.786;4.662;2024-03-29T00:14:10;3.40;;;2.48;;
82787;SDS011;72529;51.786;4.662;2024-03-29T00:16:35;3.43;;;2.49;;
82787;SDS011;72529;51.786;4.662;2024-03-29T00:19:01;3.60;;;2.61;;
82787;SDS011;72529;51.786;4.662;2024-03-29T00:21:26;3.92;;;2.87;;
82787;SDS011;72529;51.786;4.662;2024-03-29T00:23:52;3.40;;;2.53;;
82787;SDS011;72529;51.786;4.662;2024-03-29T00:26:17;3.28;;;2.41;;
82787;SDS011;72529;51.786;4.662;2024-03-29T00:28:42;3.36;;;2.47;;
82787;SDS011;72529;51.786;4.662;2024-03-29T00:31:08;3.41;;;2.50;;
82787;SDS011;72529;51.786;4.662;2024-03-29T00:33:34;3.26;;;2.36;;
82787;SDS011;72529;51.786;4.662;2024-03-29T00:35:59;3.55;;;2.56;;
82787;SDS011;72529;51.786;4.662;2024-03-29T00:38:25;3.46;;;2.54;;
82787;SDS011;72529;51.786;4.662;2024-03-29T00:40:50;3.37;;;2.47;;
82787;SDS011;72529;51.786;4.662;2024-03-29T00:43:16;3.20;;;2.34;;
82787;SDS011;72529;51.786;4.662;2024-03-29T00:45:41;3.45;;;2.49;;
82787;SDS011;72529;51.786;4.662;2024-03-29T00:48:07;3.81;;;2.71;;
82787;SDS011;72529;51.786;4.662;2024-03-29T00:50:32;3.91;;;2.74;;
82787;SDS011;72529;51.786;4.662;2024-03-29T00:52:59;3.84;;;2.70;;
82787;SDS011;72529;51.786;4.662;2024-03-29T00:55:25;3.49;;;2.43;;
82787;SDS011;72529;51.786;4.662;2024-03-29T00:57:50;3.95;;;2.74;;
82787;SDS011;72529;51.786;4.662;2024-03-29T01:00:15;3.53;;;2.49;;
82787;SDS011;72529;51.786;4.662;2024-03-29T01:02:41;3.28;;;2.33;;
82787;SDS011;72529;51.786;4.662;2024-03-29T01:05:06;2.98;;;2.12;;
82787;SDS011;72529;51.786;4.662;2024-03-29T01:07:32;3.37;;;2.40;;
82787;SDS011;72529;51.786;4.662;2024-03-29T01:09:58;3.61;;;2.58;;
82787;SDS011;72529;51.786;4.662;2024-03-29T01:12:27;3.23;;;2.35;;
82787;SDS011;72529;51.786;4.662;2024-03-29T01:14:59;3.09;;;2.24;;
82787;SDS011;72529;51.786;4.662;2024-03-29T01:17:24;3.42;;;2.51;;
82787;SDS011;72529;51.786;4.662;2024-03-29T01:19:49;3.52;;;2.55;;
82787;SDS011;72529;51.786;4.662;2024-03-29T01:22:15;3.52;;;2.53;;
82787;SDS011;72529;51.786;4.662;2024-03-29T01:24:40;3.57;;;2.53;;
82787;SDS011;72529;51.786;4.662;2024-03-29T01:27:06;3.63;;;2.57;;
82787;SDS011;72529;51.786;4.662;2024-03-29T01:29:32;3.62;;;2.56;;
82787;SDS011;72529;51.786;4.662;2024-03-29T01:31:57;3.72;;;2.63;;
82787;SDS011;72529;51.786;4.662;2024-03-29T01:34:23;3.39;;;2.39;;
82787;SDS011;72529;51.786;4.662;2024-03-29T01:36:49;3.65;;;2.57;;
82787;SDS011;72529;51.786;4.662;2024-03-29T01:39:14;3.42;;;2.42;;
82787;SDS011;72529;51.786;4.662;2024-03-29T01:41:43;3.83;;;2.78;;
82787;SDS011;72529;51.786;4.662;2024-03-29T01:44:09;3.49;;;2.58;;
82787;SDS011;72529;51.786;4.662;2024-03-29T01:46:35;3.88;;;2.88;;
82787;SDS011;72529;51.786;4.662;2024-03-29T01:49:02;3.10;;;2.33;;
82787;SDS011;72529;51.786;4.662;2024-03-29T01:51:30;3.03;;;2.29;;
82787;SDS011;72529;51.786;4.662;2024-03-29T01:53:57;2.90;;;2.19;;
82787;SDS011;72529;51.786;4.662;2024-03-29T01:56:23;2.80;;;2.10;;
82787;SDS011;72529;51.786;4.662;2024-03-29T01:58:51;3.09;;;2.34;;
82787;SDS011;72529;51.786;4.662;2024-03-29T02:01:19;3.09;;;2.31;;
82787;SDS011;72529;51.786;4.662;2024-03-29T02:03:46;3.16;;;2.38;;
82787;SDS011;72529;51.786;4.662;2024-03-29T02:06:13;3.25;;;2.45;;
82787;SDS011;72529;51.786;4.662;2024-03-29T02:08:39;3.17;;;2.37;;
82787;SDS011;72529;51.786;4.662;2024-03-29T02:11:04;2.93;;;2.15;;
82787;SDS011;72529;51.786;4.662;2024-03-29T02:13:31;3.22;;;2.35;;
82787;SDS011;72529;51.786;4.662;2024-03-29T02:15:57;3.63;;;2.67;;
82787;SDS011;72529;51.786;4.662;2024-03-29T02:18:22;3.29;;;2.39;;
82787;SDS011;72529;51.786;4.662;2024-03-29T02:20:48;3.76;;;2.71;;
82787;SDS011;72529;51.786;4.662;2024-03-29T02:23:15;3.19;;;2.31;;
82787;SDS011;72529;51.786;4.662;2024-03-29T02:25:45;3.34;;;2.43;;
82787;SDS011;72529;51.786;4.662;2024-03-29T02:28:12;3.40;;;2.47;;
82787;SDS011;72529;51.786;4.662;2024-03-29T02:30:38;3.42;;;2.47;;
82787;SDS011;72529;51.786;4.662;2024-03-29T02:33:04;3.01;;;2.18;;
82787;SDS011;72529;51.786;4.662;2024-03-29T02:35:29;2.66;;;1.95;;
82787;SDS011;72529;51.786;4.662;2024-03-29T02:37:56;3.19;;;2.34;;
82787;SDS011;72529;51.786;4.662;2024-03-29T02:40:21;2.83;;;2.09;;
82787;SDS011;72529;51.786;4.662;2024-03-29T02:42:47;3.18;;;2.36;;
82787;SDS011;72529;51.786;4.662;2024-03-29T02:45:13;3.91;;;2.95;;
82787;SDS011;72529;51.786;4.662;2024-03-29T02:47:39;3.65;;;2.78;;
82787;SDS011;72529;51.786;4.662;2024-03-29T02:50:05;3.14;;;2.44;;
82787;SDS011;72529;51.786;4.662;2024-03-29T02:52:31;3.63;;;2.76;;
82787;SDS011;72529;51.786;4.662;2024-03-29T02:54:57;3.20;;;2.45;;
82787;SDS011;72529;51.786;4.662;2024-03-29T02:57:22;3.09;;;2.40;;
82787;SDS011;72529;51.786;4.662;2024-03-29T02:59:48;2.77;;;2.18;;
82787;SDS011;72529;51.786;4.662;2024-03-29T03:02:16;2.58;;;2.06;;
82787;SDS011;72529;51.786;4.662;2024-03-29T03:04:41;2.78;;;2.19;;
82787;SDS011;72529;51.786;4.662;2024-03-29T03:07:06;2.76;;;2.19;;
82787;SDS011;72529;51.786;4.662;2024-03-29T03:09:50;2.37;;;1.90;;
82787;SDS011;72529;51.786;4.662;2024-03-29T03:12:34;2.37;;;1.86;;
82787;SDS011;72529;51.786;4.662;2024-03-29T03:15:00;2.38;;;1.89;;
82787;SDS011;72529;51.786;4.662;2024-03-29T03:17:26;2.36;;;1.89;;
82787;SDS011;72529;51.786;4.662;2024-03-29T03:19:52;2.55;;;1.99;;
82787;SDS011;72529;51.786;4.662;2024-03-29T03:22:18;2.32;;;1.79;;
82787;SDS011;72529;51.786;4.662;2024-03-29T03:24:43;2.02;;;1.55;;
82787;SDS011;72529;51.786;4.662;2024-03-29T03:27:09;2.32;;;1.79;;
82787;SDS011;72529;51.786;4.662;2024-03-29T03:29:34;2.09;;;1.62;;
82787;SDS011;72529;51.786;4.662;2024-03-29T03:32:00;1.76;;;1.37;;
82787;SDS011;72529;51.786;4.662;2024-03-29T03:34:25;2.39;;;1.83;;
82787;SDS011;72529;51.786;4.662;2024-03-29T03:36:51;2.05;;;1.58;;
82787;SDS011;72529;51.786;4.662;2024-03-29T03:39:16;1.84;;;1.42;;
82787;SDS011;72529;51.786;4.662;2024-03-29T03:41:41;1.56;;;1.22;;
82787;SDS011;72529;51.786;4.662;2024-03-29T03:44:07;1.93;;;1.52;;
82787;SDS011;72529;51.786;4.662;2024-03-29T03:46:32;1.59;;;1.25;;
82787;SDS011;72529;51.786;4.662;2024-03-29T03:48:58;1.85;;;1.46;;
82787;SDS011;72529;51.786;4.662;2024-03-29T03:51:23;1.63;;;1.29;;
82787;SDS011;72529;51.786;4.662;2024-03-29T03:53:48;1.69;;;1.36;;
82787;SDS011;72529;51.786;4.662;2024-03-29T03:56:14;1.70;;;1.38;;
82787;SDS011;72529;51.786;4.662;2024-03-29T03:58:39;1.51;;;1.24;;
82787;SDS011;72529;51.786;4.662;2024-03-29T04:01:05;1.53;;;1.27;;
82787;SDS011;72529;51.786;4.662;2024-03-29T04:03:31;1.36;;;1.13;;
82787;SDS011;72529;51.786;4.662;2024-03-29T04:05:56;1.08;;;0.89;;
82787;SDS011;72529;51.786;4.662;2024-03-29T04:08:22;1.33;;;1.12;;
82787;SDS011;72529;51.786;4.662;2024-03-29T04:10:48;1.13;;;0.95;;
82787;SDS011;72529;51.786;4.662;2024-03-29T04:13:13;1.02;;;0.86;;
82787;SDS011;72529;51.786;4.662;2024-03-29T04:15:39;1.05;;;0.88;;
82787;SDS011;72529;51.786;4.662;2024-03-29T04:18:04;1.04;;;0.87;;
82787;SDS011;72529;51.786;4.662;2024-03-29T04:20:30;0.88;;;0.74;;
82787;SDS011;72529;51.786;4.662;2024-03-29T04:22:55;0.76;;;0.65;;
82787;SDS011;72529;51.786;4.662;2024-03-29T04:25:21;0.91;;;0.77;;
82787;SDS011;72529;51.786;4.662;2024-03-29T04:27:46;0.95;;;0.80;;
82787;SDS011;72529;51.786;4.662;2024-03-29T04:30:12;0.91;;;0.76;;
82787;SDS011;72529;51.786;4.662;2024-03-29T04:32:37;0.87;;;0.72;;
82787;SDS011;72529;51.786;4.662;2024-03-29T04:35:03;0.74;;;0.61;;
82787;SDS011;72529;51.786;4.662;2024-03-29T04:37:29;0.87;;;0.73;;
82787;SDS011;72529;51.786;4.662;2024-03-29T04:39:54;0.74;;;0.61;;
82787;SDS011;72529;51.786;4.662;2024-03-29T04:42:20;0.81;;;0.67;;
82787;SDS011;72529;51.786;4.662;2024-03-29T04:44:45;0.86;;;0.71;;
82787;SDS011;72529;51.786;4.662;2024-03-29T04:47:11;1.00;;;0.81;;
82787;SDS011;72529;51.786;4.662;2024-03-29T04:49:36;0.93;;;0.75;;
82787;SDS011;72529;51.786;4.662;2024-03-29T04:52:05;0.96;;;0.77;;
82787;SDS011;72529;51.786;4.662;2024-03-29T04:54:31;0.73;;;0.59;;
82787;SDS011;72529;51.786;4.662;2024-03-29T04:57:01;0.74;;;0.60;;
82787;SDS011;72529;51.786;4.662;2024-03-29T04:59:27;1.00;;;0.81;;
82787;SDS011;72529;51.786;4.662;2024-03-29T05:01:53;0.72;;;0.59;;
82787;SDS011;72529;51.786;4.662;2024-03-29T05:04:21;0.85;;;0.70;;
82787;SDS011;72529;51.786;4.662;2024-03-29T05:06:52;0.77;;;0.64;;
82787;SDS011;72529;51.786;4.662;2024-03-29T05:09:25;0.84;;;0.70;;
82787;SDS011;72529;51.786;4.662;2024-03-29T05:11:51;1.00;;;0.82;;
82787;SDS011;72529;51.786;4.662;2024-03-29T05:14:17;0.91;;;0.74;;
82787;SDS011;72529;51.786;4.662;2024-03-29T05:16:46;1.16;;;0.93;;
82787;SDS011;72529;51.786;4.662;2024-03-29T05:19:13;1.31;;;1.06;;
82787;SDS011;72529;51.786;4.662;2024-03-29T05:21:40;1.60;;;1.30;;
82787;SDS011;72529;51.786;4.662;2024-03-29T05:24:06;1.15;;;0.93;;
82787;SDS011;72529;51.786;4.662;2024-03-29T05:26:32;1.48;;;1.21;;
82787;SDS011;72529;51.786;4.662;2024-03-29T05:28:57;1.42;;;1.17;;
82787;SDS011;72529;51.786;4.662;2024-03-29T05:31:23;1.07;;;0.89;;
82787;SDS011;72529;51.786;4.662;2024-03-29T05:33:49;1.09;;;0.92;;
82787;SDS011;72529;51.786;4.662;2024-03-29T05:36:15;1.12;;;0.93;;
82787;SDS011;72529;51.786;4.662;2024-03-29T05:38:41;1.37;;;1.14;;
82787;SDS011;72529;51.786;4.662;2024-03-29T05:41:07;1.12;;;0.94;;
82787;SDS011;72529;51.786;4.662;2024-03-29T05:43:32;1.51;;;1.27;;
82787;SDS011;72529;51.786;4.662;2024-03-29T05:45:58;1.25;;;1.06;;
82787;SDS011;72529;51.786;4.662;2024-03-29T05:48:25;1.20;;;1.00;;
82787;SDS011;72529;51.786;4.662;2024-03-29T05:50:51;1.46;;;1.20;;
82787;SDS011;72529;51.786;4.662;2024-03-29T05:53:16;1.49;;;1.22;;
82787;SDS011;72529;51.786;4.662;2024-03-29T05:55:41;1.47;;;1.21;;
82787;SDS011;72529;51.786;4.662;2024-03-29T05:58:07;1.68;;;1.37;;
82787;SDS011;72529;51.786;4.662;2024-03-29T06:00:32;1.99;;;1.58;;
82787;SDS011;72529;51.786;4.662;2024-03-29T06:03:01;1.68;;;1.35;;
82787;SDS011;72529;51.786;4.662;2024-03-29T06:05:30;1.71;;;1.37;;
82787;SDS011;72529;51.786;4.662;2024-03-29T06:07:56;1.41;;;1.12;;
82787;SDS011;72529;51.786;4.662;2024-03-29T06:10:21;1.56;;;1.24;;
82787;SDS011;72529;51.786;4.662;2024-03-29T06:12:47;1.46;;;1.18;;
82787;SDS011;72529;51.786;4.662;2024-03-29T06:15:12;1.53;;;1.25;;
82787;SDS011;72529;51.786;4.662;2024-03-29T06:17:57;1.42;;;1.18;;
82787;SDS011;72529;51.786;4.662;2024-03-29T06:20:22;1.43;;;1.19;;
82787;SDS011;72529;51.786;4.662;2024-03-29T06:22:49;1.47;;;1.22;;
82787;SDS011;72529;51.786;4.662;2024-03-29T06:25:14;1.66;;;1.36;;
82787;SDS011;72529;51.786;4.662;2024-03-29T06:27:40;1.53;;;1.25;;
82787;SDS011;72529;51.786;4.662;2024-03-29T06:30:08;1.66;;;1.37;;
82787;SDS011;72529;51.786;4.662;2024-03-29T06:32:34;1.36;;;1.13;;
82787;SDS011;72529;51.786;4.662;2024-03-29T06:35:00;1.45;;;1.22;;
82787;SDS011;72529;51.786;4.662;2024-03-29T06:37:26;1.30;;;1.10;;
82787;SDS011;72529;51.786;4.662;2024-03-29T06:39:53;1.29;;;1.09;;
82787;SDS011;72529;51.786;4.662;2024-03-29T06:42:18;1.48;;;1.26;;
82787;SDS011;72529;51.786;4.662;2024-03-29T06:44:44;1.10;;;0.93;;
82787;SDS011;72529;51.786;4.662;2024-03-29T06:47:12;1.26;;;1.07;;
82787;SDS011;72529;51.786;4.662;2024-03-29T06:49:38;1.29;;;1.10;;
82787;SDS011;72529;51.786;4.662;2024-03-29T06:52:04;1.31;;;1.12;;
82787;SDS011;72529;51.786;4.662;2024-03-29T06:54:30;1.17;;;1.01;;
82787;SDS011;72529;51.786;4.662;2024-03-29T06:56:57;1.29;;;1.13;;
82787;SDS011;72529;51.786;4.662;2024-03-29T06:59:23;1.09;;;0.96;;
82787;SDS011;72529;51.786;4.662;2024-03-29T07:01:49;1.21;;;1.07;;
82787;SDS011;72529;51.786;4.662;2024-03-29T07:04:20;1.12;;;1.00;;
82787;SDS011;72529;51.786;4.662;2024-03-29T07:06:52;1.15;;;1.02;;
82787;SDS011;72529;51.786;4.662;2024-03-29T07:09:19;1.30;;;1.17;;
82787;SDS011;72529;51.786;4.662;2024-03-29T07:11:49;1.16;;;1.05;;
82787;SDS011;72529;51.786;4.662;2024-03-29T07:14:16;1.07;;;0.97;;
82787;SDS011;72529;51.786;4.662;2024-03-29T07:16:43;1.10;;;1.00;;
82787;SDS011;72529;51.786;4.662;2024-03-29T07:19:10;1.01;;;0.91;;
82787;SDS011;72529;51.786;4.662;2024-03-29T07:21:41;1.12;;;1.03;;
82787;SDS011;72529;51.786;4.662;2024-03-29T07:24:09;1.29;;;1.19;;
82787;SDS011;72529;51.786;4.662;2024-03-29T07:26:36;1.18;;;1.09;;
82787;SDS011;72529;51.786;4.662;2024-03-29T07:29:01;1.11;;;1.01;;
82787;SDS011;72529;51.786;4.662;2024-03-29T07:31:27;1.19;;;1.09;;
82787;SDS011;72529;51.786;4.662;2024-03-29T07:33:52;1.29;;;1.18;;
82787;SDS011;72529;51.786;4.662;2024-03-29T07:36:17;1.15;;;1.05;;
82787;SDS011;72529;51.786;4.662;2024-03-29T07:38:43;1.26;;;1.15;;
82787;SDS011;72529;51.786;4.662;2024-03-29T07:41:09;1.39;;;1.27;;
82787;SDS011;72529;51.786;4.662;2024-03-29T07:43:54;1.17;;;1.08;;
82787;SDS011;72529;51.786;4.662;2024-03-29T07:46:29;1.12;;;1.05;;
82787;SDS011;72529;51.786;4.662;2024-03-29T07:48:57;1.21;;;1.12;;
82787;SDS011;72529;51.786;4.662;2024-03-29T07:51:23;1.05;;;0.98;;
82787;SDS011;72529;51.786;4.662;2024-03-29T07:53:48;1.10;;;1.04;;
82787;SDS011;72529;51.786;4.662;2024-03-29T07:56:14;1.03;;;0.97;;
82787;SDS011;72529;51.786;4.662;2024-03-29T07:58:39;0.89;;;0.84;;
82787;SDS011;72529;51.786;4.662;2024-03-29T08:01:04;0.90;;;0.86;;
82787;SDS011;72529;51.786;4.662;2024-03-29T08:03:31;0.89;;;0.85;;
82787;SDS011;72529;51.786;4.662;2024-03-29T08:05:59;0.96;;;0.91;;
82787;SDS011;72529;51.786;4.662;2024-03-29T08:08:29;0.81;;;0.77;;
82787;SDS011;72529;51.786;4.662;2024-03-29T08:10:56;0.80;;;0.75;;
82787;SDS011;72529;51.786;4.662;2024-03-29T08:13:21;0.75;;;0.70;;
82787;SDS011;72529;51.786;4.662;2024-03-29T08:15:50;0.90;;;0.84;;
82787;SDS011;72529;51.786;4.662;2024-03-29T08:18:27;1.22;;;1.13;;
82787;SDS011;72529;51.786;4.662;2024-03-29T08:20:54;0.99;;;0.92;;
82787;SDS011;72529;51.786;4.662;2024-03-29T08:23:23;1.15;;;1.09;;
82787;SDS011;72529;51.786;4.662;2024-03-29T08:25:48;1.26;;;1.20;;
82787;SDS011;72529;51.786;4.662;2024-03-29T08:28:15;1.02;;;0.99;;
82787;SDS011;72529;51.786;4.662;2024-03-29T08:30:40;0.79;;;0.76;;
82787;SDS011;72529;51.786;4.662;2024-03-29T08:33:06;0.92;;;0.89;;
82787;SDS011;72529;51.786;4.662;2024-03-29T08:35:32;0.98;;;0.95;;
82787;SDS011;72529;51.786;4.662;2024-03-29T08:37:58;0.97;;;0.94;;
82787;SDS011;72529;51.786;4.662;2024-03-29T08:40:26;0.81;;;0.78;;
82787;SDS011;72529;51.786;4.662;2024-03-29T08:42:59;0.98;;;0.94;;
82787;SDS011;72529;51.786;4.662;2024-03-29T08:45:24;1.03;;;0.99;;
82787;SDS011;72529;51.786;4.662;2024-03-29T08:47:50;1.00;;;0.96;;
82787;SDS011;72529;51.786;4.662;2024-03-29T08:50:15;0.88;;;0.85;;
82787;SDS011;72529;51.786;4.662;2024-03-29T08:52:41;1.11;;;1.08;;
82787;SDS011;72529;51.786;4.662;2024-03-29T08:55:07;1.41;;;1.38;;
82787;SDS011;72529;51.786;4.662;2024-03-29T08:57:33;1.08;;;1.06;;
82787;SDS011;72529;51.786;4.662;2024-03-29T08:59:59;1.07;;;1.05;;
82787;SDS011;72529;51.786;4.662;2024-03-29T09:02:24;1.25;;;1.23;;
82787;SDS011;72529;51.786;4.662;2024-03-29T09:04:50;0.86;;;0.84;;
82787;SDS011;72529;51.786;4.662;2024-03-29T09:07:15;0.99;;;0.97;;
82787;SDS011;72529;51.786;4.662;2024-03-29T09:09:40;0.86;;;0.84;;
82787;SDS011;72529;51.786;4.662;2024-03-29T09:12:07;0.90;;;0.88;;
82787;SDS011;72529;51.786;4.662;2024-03-29T09:14:33;0.97;;;0.94;;
82787;SDS011;72529;51.786;4.662;2024-03-29T09:16:58;0.96;;;0.92;;
82787;SDS011;72529;51.786;4.662;2024-03-29T09:19:24;1.15;;;1.10;;
82787;SDS011;72529;51.786;4.662;2024-03-29T09:21:50;1.19;;;1.15;;
82787;SDS011;72529;51.786;4.662;2024-03-29T09:24:15;1.18;;;1.13;;
82787;SDS011;72529;51.786;4.662;2024-03-29T09:26:42;1.27;;;1.23;;
82787;SDS011;72529;51.786;4.662;2024-03-29T09:29:08;1.47;;;1.43;;
82787;SDS011;72529;51.786;4.662;2024-03-29T09:31:34;1.54;;;1.50;;
82787;SDS011;72529;51.786;4.662;2024-03-29T09:34:00;1.83;;;1.77;;
82787;SDS011;72529;51.786;4.662;2024-03-29T09:36:26;1.62;;;1.58;;
82787;SDS011;72529;51.786;4.662;2024-03-29T09:38:51;1.80;;;1.74;;
82787;SDS011;72529;51.786;4.662;2024-03-29T09:41:18;1.97;;;1.92;;
82787;SDS011;72529;51.786;4.662;2024-03-29T09:43:45;2.02;;;1.98;;
82787;SDS011;72529;51.786;4.662;2024-03-29T09:46:12;1.88;;;1.86;;
82787;SDS011;72529;51.786;4.662;2024-03-29T09:48:39;2.09;;;2.09;;
82787;SDS011;72529;51.786;4.662;2024-03-29T09:51:06;2.06;;;2.06;;
82787;SDS011;72529;51.786;4.662;2024-03-29T09:53:36;2.61;;;2.61;;
82787;SDS011;72529;51.786;4.662;2024-03-29T09:56:02;2.58;;;2.58;;
82787;SDS011;72529;51.786;4.662;2024-03-29T09:58:30;2.73;;;2.73;;
82787;SDS011;72529;51.786;4.662;2024-03-29T10:00:59;2.76;;;2.75;;
82787;SDS011;72529;51.786;4.662;2024-03-29T10:03:28;2.46;;;2.45;;
82787;SDS011;72529;51.786;4.662;2024-03-29T10:05:56;2.58;;;2.58;;
82787;SDS011;72529;51.786;4.662;2024-03-29T10:08:22;2.46;;;2.46;;
82787;SDS011;72529;51.786;4.662;2024-03-29T10:10:50;2.70;;;2.70;;
82787;SDS011;72529;51.786;4.662;2024-03-29T10:13:17;2.72;;;2.72;;
82787;SDS011;72529;51.786;4.662;2024-03-29T10:15:42;2.99;;;2.99;;
82787;SDS011;72529;51.786;4.662;2024-03-29T10:18:12;3.14;;;3.14;;
82787;SDS011;72529;51.786;4.662;2024-03-29T10:20:37;3.41;;;3.41;;
82787;SDS011;72529;51.786;4.662;2024-03-29T10:23:03;3.41;;;3.41;;
82787;SDS011;72529;51.786;4.662;2024-03-29T10:25:32;3.69;;;3.69;;
82787;SDS011;72529;51.786;4.662;2024-03-29T10:27:58;3.91;;;3.91;;
82787;SDS011;72529;51.786;4.662;2024-03-29T10:30:27;3.82;;;3.82;;
82787;SDS011;72529;51.786;4.662;2024-03-29T10:32:52;3.84;;;3.84;;
82787;SDS011;72529;51.786;4.662;2024-03-29T10:35:18;3.97;;;3.97;;
82787;SDS011;72529;51.786;4.662;2024-03-29T10:37:45;4.80;;;4.80;;
82787;SDS011;72529;51.786;4.662;2024-03-29T10:40:10;4.58;;;4.58;;
82787;SDS011;72529;51.786;4.662;2024-03-29T10:42:40;7.82;;;7.82;;
82787;SDS011;72529;51.786;4.662;2024-03-29T10:45:07;4.60;;;4.60;;
82787;SDS011;72529;51.786;4.662;2024-03-29T10:47:33;4.12;;;4.12;;
82787;SDS011;72529;51.786;4.662;2024-03-29T10:49:59;3.76;;;3.76;;
82787;SDS011;72529;51.786;4.662;2024-03-29T10:52:25;3.68;;;3.68;;
82787;SDS011;72529;51.786;4.662;2024-03-29T10:54:52;3.13;;;3.13;;
82787;SDS011;72529;51.786;4.662;2024-03-29T11:05:30;2.29;;;2.29;;
82787;SDS011;72529;51.786;4.662;2024-03-29T11:07:58;2.33;;;2.33;;
82787;SDS011;72529;51.786;4.662;2024-03-29T11:10:29;2.30;;;2.30;;
82787;SDS011;72529;51.786;4.662;2024-03-29T11:13:02;2.32;;;2.32;;
82787;SDS011;72529;51.786;4.662;2024-03-29T11:15:36;2.29;;;2.29;;
82787;SDS011;72529;51.786;4.662;2024-03-29T11:18:05;2.40;;;2.40;;
82787;SDS011;72529;51.786;4.662;2024-03-29T11:20:32;2.38;;;2.38;;
82787;SDS011;72529;51.786;4.662;2024-03-29T11:23:06;6.41;;;6.41;;
82787;SDS011;72529;51.786;4.662;2024-03-29T11:25:42;2.49;;;2.49;;
82787;SDS011;72529;51.786;4.662;2024-03-29T11:28:10;2.28;;;2.28;;
82787;SDS011;72529;51.786;4.662;2024-03-29T11:30:46;2.09;;;2.09;;
82787;SDS011;72529;51.786;4.662;2024-03-29T11:36:06;2.08;;;2.08;;
82787;SDS011;72529;51.786;4.662;2024-03-29T11:38:55;1.83;;;1.83;;
82787;SDS011;72529;51.786;4.662;2024-03-29T11:41:23;1.80;;;1.80;;
82787;SDS011;72529;51.786;4.662;2024-03-29T11:43:50;1.75;;;1.75;;
82787;SDS011;72529;51.786;4.662;2024-03-29T11:46:16;1.99;;;1.99;;
82787;SDS011;72529;51.786;4.662;2024-03-29T11:48:43;1.92;;;1.92;;
82787;SDS011;72529;51.786;4.662;2024-03-29T11:51:11;2.23;;;2.23;;
82787;SDS011;72529;51.786;4.662;2024-03-29T11:53:40;2.49;;;2.49;;
82787;SDS011;72529;51.786;4.662;2024-03-29T11:56:06;2.49;;;2.49;;
82787;SDS011;72529;51.786;4.662;2024-03-29T11:58:32;2.64;;;2.64;;
82787;SDS011;72529;51.786;4.662;2024-03-29T12:00:59;2.32;;;2.32;;
82787;SDS011;72529;51.786;4.662;2024-03-29T12:03:27;2.63;;;2.63;;
82787;SDS011;72529;51.786;4.662;2024-03-29T12:05:54;2.86;;;2.86;;
82787;SDS011;72529;51.786;4.662;2024-03-29T12:08:29;2.65;;;2.65;;
82787;SDS011;72529;51.786;4.662;2024-03-29T12:10:57;2.84;;;2.84;;
82787;SDS011;72529;51.786;4.662;2024-03-29T12:13:24;2.72;;;2.72;;
82787;SDS011;72529;51.786;4.662;2024-03-29T12:15:50;2.52;;;2.52;;
82787;SDS011;72529;51.786;4.662;2024-03-29T12:18:15;2.57;;;2.57;;
82787;SDS011;72529;51.786;4.662;2024-03-29T12:20:41;2.78;;;2.78;;
82787;SDS011;72529;51.786;4.662;2024-03-29T12:23:11;2.47;;;2.47;;
82787;SDS011;72529;51.786;4.662;2024-03-29T12:25:39;2.69;;;2.69;;
82787;SDS011;72529;51.786;4.662;2024-03-29T12:28:05;2.61;;;2.61;;
82787;SDS011;72529;51.786;4.662;2024-03-29T12:30:32;2.60;;;2.60;;
82787;SDS011;72529;51.786;4.662;2024-03-29T12:33:08;2.55;;;2.55;;
82787;SDS011;72529;51.786;4.662;2024-03-29T12:35:37;2.83;;;2.83;;
82787;SDS011;72529;51.786;4.662;2024-03-29T12:38:03;2.68;;;2.68;;
82787;SDS011;72529;51.786;4.662;2024-03-29T12:40:32;2.46;;;2.46;;
82787;SDS011;72529;51.786;4.662;2024-03-29T12:43:02;2.37;;;2.37;;
82787;SDS011;72529;51.786;4.662;2024-03-29T12:45:34;2.48;;;2.48;;
82787;SDS011;72529;51.786;4.662;2024-03-29T12:48:01;2.65;;;2.65;;
82787;SDS011;72529;51.786;4.662;2024-03-29T12:50:31;2.44;;;2.44;;
82787;SDS011;72529;51.786;4.662;2024-03-29T12:52:58;2.52;;;2.52;;
82787;SDS011;72529;51.786;4.662;2024-03-29T12:55:30;2.23;;;2.23;;
82787;SDS011;72529;51.786;4.662;2024-03-29T12:57:57;2.28;;;2.28;;
82787;SDS011;72529;51.786;4.662;2024-03-29T13:00:25;2.19;;;2.19;;
82787;SDS011;72529;51.786;4.662;2024-03-29T13:02:51;2.20;;;2.20;;
82787;SDS011;72529;51.786;4.662;2024-03-29T13:05:16;2.28;;;2.28;;
82787;SDS011;72529;51.786;4.662;2024-03-29T13:07:42;2.22;;;2.22;;
82787;SDS011;72529;51.786;4.662;2024-03-29T13:10:08;8.88;;;8.88;;
82787;SDS011;72529;51.786;4.662;2024-03-29T13:12:44;3.80;;;3.80;;
82787;SDS011;72529;51.786;4.662;2024-03-29T13:15:18;4.63;;;4.62;;
82787;SDS011;72529;51.786;4.662;2024-03-29T13:17:54;3.05;;;3.05;;
82787;SDS011;72529;51.786;4.662;2024-03-29T13:20:21;2.09;;;2.09;;
82787;SDS011;72529;51.786;4.662;2024-03-29T13:22:49;2.14;;;2.14;;
82787;SDS011;72529;51.786;4.662;2024-03-29T13:25:17;2.06;;;2.06;;
82787;SDS011;72529;51.786;4.662;2024-03-29T13:27:44;2.06;;;2.06;;
82787;SDS011;72529;51.786;4.662;2024-03-29T13:30:12;1.97;;;1.97;;
82787;SDS011;72529;51.786;4.662;2024-03-29T13:32:39;2.57;;;2.57;;
82787;SDS011;72529;51.786;4.662;2024-03-29T13:35:04;2.43;;;2.43;;
82787;SDS011;72529;51.786;4.662;2024-03-29T13:37:34;1.91;;;1.91;;
82787;SDS011;72529;51.786;4.662;2024-03-29T13:39:59;2.30;;;2.30;;
82787;SDS011;72529;51.786;4.662;2024-03-29T13:42:25;2.22;;;2.22;;
82787;SDS011;72529;51.786;4.662;2024-03-29T13:44:51;1.94;;;1.94;;
82787;SDS011;72529;51.786;4.662;2024-03-29T13:47:19;1.85;;;1.85;;
82787;SDS011;72529;51.786;4.662;2024-03-29T13:49:45;1.64;;;1.64;;
82787;SDS011;72529;51.786;4.662;2024-03-29T13:52:14;1.60;;;1.60;;
82787;SDS011;72529;51.786;4.662;2024-03-29T13:54:43;1.84;;;1.84;;
82787;SDS011;72529;51.786;4.662;2024-03-29T13:57:12;1.63;;;1.63;;
82787;SDS011;72529;51.786;4.662;2024-03-29T13:59:38;1.90;;;1.90;;
82787;SDS011;72529;51.786;4.662;2024-03-29T14:02:03;3.87;;;3.87;;
82787;SDS011;72529;51.786;4.662;2024-03-29T14:04:28;2.49;;;2.49;;
82787;SDS011;72529;51.786;4.662;2024-03-29T14:06:54;3.50;;;3.50;;
82787;SDS011;72529;51.786;4.662;2024-03-29T14:09:20;1.81;;;1.81;;
82787;SDS011;72529;51.786;4.662;2024-03-29T14:11:46;1.59;;;1.59;;
82787;SDS011;72529;51.786;4.662;2024-03-29T14:14:11;1.74;;;1.74;;
82787;SDS011;72529;51.786;4.662;2024-03-29T14:16:38;1.58;;;1.58;;
82787;SDS011;72529;51.786;4.662;2024-03-29T14:19:03;1.65;;;1.65;;
82787;SDS011;72529;51.786;4.662;2024-03-29T14:21:29;1.44;;;1.44;;
82787;SDS011;72529;51.786;4.662;2024-03-29T14:23:55;1.35;;;1.35;;
82787;SDS011;72529;51.786;4.662;2024-03-29T14:26:21;1.51;;;1.51;;
82787;SDS011;72529;51.786;4.662;2024-03-29T14:28:47;1.67;;;1.67;;
82787;SDS011;72529;51.786;4.662;2024-03-29T14:31:12;1.54;;;1.54;;
82787;SDS011;72529;51.786;4.662;2024-03-29T14:33:37;1.24;;;1.24;;
82787;SDS011;72529;51.786;4.662;2024-03-29T14:36:03;1.32;;;1.32;;
82787;SDS011;72529;51.786;4.662;2024-03-29T14:38:29;1.22;;;1.22;;
82787;SDS011;72529;51.786;4.662;2024-03-29T14:40:55;1.26;;;1.26;;
82787;SDS011;72529;51.786;4.662;2024-03-29T14:43:20;1.17;;;1.17;;
82787;SDS011;72529;51.786;4.662;2024-03-29T14:45:46;1.21;;;1.21;;
82787;SDS011;72529;51.786;4.662;2024-03-29T14:48:15;1.10;;;1.08;;
82787;SDS011;72529;51.786;4.662;2024-03-29T14:50:42;1.29;;;1.26;;
82787;SDS011;72529;51.786;4.662;2024-03-29T14:53:07;1.42;;;1.40;;
82787;SDS011;72529;51.786;4.662;2024-03-29T14:55:33;1.31;;;1.31;;
82787;SDS011;72529;51.786;4.662;2024-03-29T14:57:58;1.12;;;1.12;;